CheckWX is a tool to help pilots better visualize weather data.  It is not intended as a substitute for an official pre-flight weather briefing.

01:54:21 UTC

GMFF TAF
Saïss Airport
Fes, Morocco
TAF GMFF 182300Z 1900/2006 20004KT CAVOK PROB30 TEMPO 1904/1908 4000 BR BKN006 BECMG 1908/1910 06010KT

Mar-19@
00:00 UTC

Mar-19 @ 00:00 UTC

Mar-19@
08:00 UTC

Mar-19 @ 08:00 UTC

TAF GMFF 182300Z 1900/2006 20004KT CAVOK
Wind
  • 200° at 4 KTS
Conditions
No significant weather
Cloud Levels
  • No significant clouds

Mar-19@
04:00 UTC

Mar-19 @ 04:00 UTC

Mar-19@
08:00 UTC

Mar-19 @ 08:00 UTC

PROB30 TEMPO 1904/1908 4000 BR BKN006

Temporary - 30% Likelihood

Temporary - 30% Likelihood during this time.

Conditions
Mist
Cloud Levels
  • Broken at 600' AGL

Mar-19@
08:00 UTC

Mar-19 @ 08:00 UTC

Mar-20@
06:00 UTC

Mar-20 @ 06:00 UTC

BECMG 1908/1910 06010KT

Becoming

Becoming Conditions expected by Tue, Mar 19, 2019 @ 10:00 UTC

Wind
  • 060° at 10 KTS
Conditions
No significant weather
Cloud Levels
  • No significant clouds